Time;durP1;ratioP1;P1;durP2;ratioP2;P2;SDS_P1;SDS_P2;PMS_P1;PMS_P2;Temp;Humidity;BMP_temperature;BMP_pressure;BME280_temperature;BME280_humidity;BME280_pressure;Samples;Min_cycle;Max_cycle;Signal;HPM_P1;HPM_P2
2022/05/10 00:01:05;;;;;;;;;;;12.50;99.90;;;;;;5092958;28;19927;-71
2022/05/10 00:03:39;;;;;;;;;;;12.40;99.90;;;;;;5093343;28;19916;-70
2022/05/10 00:06:05;;;;;;;;;;;12.30;99.90;;;;;;5075517;28;19924;-71
2022/05/10 00:08:31;;;;;;;;;;;12.30;99.90;;;;;;5094529;28;19916;-71
2022/05/10 00:10:56;;;;;;;;;;;12.30;99.90;;;;;;5093850;28;19920;-71
2022/05/10 00:13:23;;;;;;;;;;;12.30;99.90;;;;;;5093663;28;19920;-71
2022/05/10 00:15:48;;;;;;;;;;;12.30;99.90;;;;;;5077670;28;19923;-70
2022/05/10 00:18:15;;;;;;;;;;;12.30;99.90;;;;;;5092547;28;19920;-70
2022/05/10 00:20:41;;;;;;;;;;;12.50;99.90;;;;;;5095329;28;19959;-71
2022/05/10 00:23:07;;;;;;;;;;;12.30;99.90;;;;;;5095458;28;20375;-71
2022/05/10 00:25:32;;;;;;;;;;;12.30;99.90;;;;;;5094682;28;19927;-71
2022/05/10 00:27:58;;;;;;;;;;;12.20;99.90;;;;;;5081028;28;20329;-71
2022/05/10 00:30:24;;;;;;;;;;;12.20;99.90;;;;;;5094712;28;20383;-70
2022/05/10 00:32:49;;;;;;;;;;;12.30;99.90;;;;;;5108023;28;20299;-70
2022/05/10 00:35:16;;;;;;;;;;;12.30;99.90;;;;;;5093516;28;19923;-70
2022/05/10 00:37:46;;;;;;;;;;;12.40;99.90;;;;;;5092417;28;19991;-70
2022/05/10 00:40:13;;;;;;;;;;;12.20;99.90;;;;;;5092795;28;19920;-71
2022/05/10 00:42:45;;;;;;;;;;;12.10;99.90;;;;;;5094015;28;19927;-70
2022/05/10 00:45:15;;;;;;;;;;;12.10;99.90;;;;;;5092203;28;20397;-70
2022/05/10 00:47:49;;;;;;;;;;;12.10;99.90;;;;;;5092413;28;19920;-71
2022/05/10 00:50:27;;;;;;;;;;;12.10;99.90;;;;;;5093645;28;20049;-70
2022/05/10 00:53:01;;;;;;;;;;;12.10;99.90;;;;;;5093878;28;19943;-71
2022/05/10 00:55:31;;;;;;;;;;;12.00;99.90;;;;;;5094774;28;19920;-71
2022/05/10 00:58:16;;;;;;;;;;;12.10;99.90;;;;;;5094278;28;19973;-71
2022/05/10 01:00:42;;;;;;;;;;;12.10;99.90;;;;;;5093777;28;19920;-70
2022/05/10 01:03:26;;;;;;;;;;;12.40;99.90;;;;;;5093935;28;20014;-71
2022/05/10 01:06:11;;;;;;;;;;;12.20;99.90;;;;;;5079239;28;19942;-71
2022/05/10 01:08:45;;;;;;;;;;;12.20;99.90;;;;;;5093824;28;19970;-71
2022/05/10 01:11:18;;;;;;;;;;;12.10;99.90;;;;;;5097367;28;19920;-71
2022/05/10 01:13:47;;;;;;;;;;;12.10;99.90;;;;;;5097089;28;19951;-71
2022/05/10 01:16:19;;;;;;;;;;;12.10;99.90;;;;;;5096809;28;19923;-71
2022/05/10 01:18:45;;;;;;;;;;;12.10;99.90;;;;;;5097628;28;20725;-71
2022/05/10 01:21:19;;;;;;;;;;;12.10;99.90;;;;;;5096280;28;19950;-71
2022/05/10 01:23:51;;;;;;;;;;;12.10;99.90;;;;;;5096954;28;19920;-71
2022/05/10 01:26:24;;;;;;;;;;;12.10;99.90;;;;;;5096858;28;19926;-71
2022/05/10 01:29:00;;;;;;;;;;;12.10;99.90;;;;;;5096514;28;19927;-71
2022/05/10 01:31:30;;;;;;;;;;;12.10;99.90;;;;;;5096039;28;19926;-71
2022/05/10 01:34:00;;;;;;;;;;;12.10;99.90;;;;;;5098491;28;19942;-71
2022/05/10 01:36:32;;;;;;;;;;;12.40;99.90;;;;;;5097420;28;19927;-71
2022/05/10 01:39:09;;;;;;;;;;;12.00;99.90;;;;;;5098887;28;19920;-71
2022/05/10 01:41:52;;;;;;;;;;;12.00;99.90;;;;;;5096690;28;19972;-71
2022/05/10 01:44:23;;;;;;;;;;;12.00;99.90;;;;;;5097002;28;20340;-71
2022/05/10 01:46:49;;;;;;;;;;;12.20;99.90;;;;;;5096894;28;19916;-71
2022/05/10 01:49:19;;;;;;;;;;;11.90;99.90;;;;;;5097424;28;19904;-71
2022/05/10 01:51:48;;;;;;;;;;;11.90;99.90;;;;;;5098233;28;19920;-71
2022/05/10 01:54:40;;;;;;;;;;;11.90;99.90;;;;;;5097167;28;19916;-71
2022/05/10 01:57:13;;;;;;;;;;;11.90;99.90;;;;;;5066288;28;19920;-71
2022/05/10 01:59:42;;;;;;;;;;;11.80;99.90;;;;;;5080456;28;19920;-71
2022/05/10 02:02:10;;;;;;;;;;;11.80;99.90;;;;;;5097637;28;20321;-71
2022/05/10 02:04:37;;;;;;;;;;;11.90;99.90;;;;;;5078851;28;19916;-72
2022/05/10 02:07:10;;;;;;;;;;;11.80;99.90;;;;;;5079194;28;19935;-72
2022/05/10 02:09:39;;;;;;;;;;;12.00;99.90;;;;;;5094805;28;19923;-72
2022/05/10 02:12:12;;;;;;;;;;;11.90;99.90;;;;;;5097487;28;19920;-72
2022/05/10 02:14:41;;;;;;;;;;;11.90;99.90;;;;;;5081175;28;19928;-71
2022/05/10 02:17:13;;;;;;;;;;;11.90;99.90;;;;;;5096417;28;19927;-72
2022/05/10 02:19:39;;;;;;;;;;;12.00;99.90;;;;;;5097306;28;19920;-71
2022/05/10 02:22:10;;;;;;;;;;;12.00;99.90;;;;;;5097933;28;19920;-71
2022/05/10 02:24:41;;;;;;;;;;;12.00;99.90;;;;;;5078263;28;19929;-71
2022/05/10 02:27:09;;;;;;;;;;;12.10;99.90;;;;;;5097128;28;20015;-71
2022/05/10 02:29:44;;;;;;;;;;;12.10;99.90;;;;;;5096592;28;19926;-72
2022/05/10 02:34:54;;;;;;;;;;;12.30;99.90;;;;;;5094140;28;19920;-72
2022/05/10 02:37:20;;;;;;;;;;;12.30;99.90;;;;;;5093908;28;19924;-71
2022/05/10 02:39:45;;;;;;;;;;;12.40;99.90;;;;;;5096315;28;19924;-71
2022/05/10 02:42:12;;;;;;;;;;;12.40;99.90;;;;;;5096672;28;19967;-71
2022/05/10 02:44:38;;;;;;;;;;;12.40;99.90;;;;;;5096744;28;20426;-71
2022/05/10 02:47:04;;;;;;;;;;;12.40;99.90;;;;;;5097043;28;19959;-71
2022/05/10 02:49:30;;;;;;;;;;;12.50;99.90;;;;;;5097522;28;20062;-71
2022/05/10 02:51:56;;;;;;;;;;;12.50;99.90;;;;;;5078252;28;20394;-72
2022/05/10 02:54:21;;;;;;;;;;;12.50;99.90;;;;;;5095554;28;19927;-71
2022/05/10 02:56:47;;;;;;;;;;;12.70;99.90;;;;;;5095669;28;20366;-71
2022/05/10 02:59:18;;;;;;;;;;;12.70;99.90;;;;;;5093997;28;19926;-71
2022/05/10 03:02:02;;;;;;;;;;;12.80;99.90;;;;;;5096318;28;20350;-71
2022/05/10 03:04:35;;;;;;;;;;;12.70;99.90;;;;;;5093985;28;19920;-72
2022/05/10 03:07:02;;;;;;;;;;;12.60;99.90;;;;;;5095669;28;19924;-72
2022/05/10 03:09:28;;;;;;;;;;;12.70;99.90;;;;;;5094777;28;19943;-71
2022/05/10 03:11:55;;;;;;;;;;;12.80;99.90;;;;;;5095167;28;20346;-71
2022/05/10 03:14:21;;;;;;;;;;;12.70;99.90;;;;;;5076282;28;19938;-71
2022/05/10 03:16:46;;;;;;;;;;;12.70;99.90;;;;;;5077518;28;19920;-71
2022/05/10 03:19:15;;;;;;;;;;;12.70;99.90;;;;;;5089469;28;19924;-71
2022/05/10 03:21:41;;;;;;;;;;;12.70;99.90;;;;;;5096345;28;19920;-71
2022/05/10 03:24:07;;;;;;;;;;;12.70;99.90;;;;;;5094395;28;19920;-71
2022/05/10 03:26:32;;;;;;;;;;;12.70;99.90;;;;;;5094299;28;19974;-71
2022/05/10 03:28:58;;;;;;;;;;;12.70;99.90;;;;;;5094280;28;20299;-71
2022/05/10 03:31:25;;;;;;;;;;;12.80;99.90;;;;;;5094757;28;19920;-71
2022/05/10 03:36:35;;;;;;;;;;;12.70;99.90;;;;;;5092936;28;19920;-71
2022/05/10 03:39:01;;;;;;;;;;;12.80;99.90;;;;;;5095094;28;20432;-71
2022/05/10 03:41:29;;;;;;;;;;;12.80;99.90;;;;;;5095395;28;19952;-71
2022/05/10 03:43:55;;;;;;;;;;;12.80;99.90;;;;;;5095837;28;19920;-71
2022/05/10 03:46:20;;;;;;;;;;;12.80;99.90;;;;;;5077916;28;19919;-71
2022/05/10 03:48:48;;;;;;;;;;;12.90;99.90;;;;;;5094662;28;20329;-72
2022/05/10 03:51:15;;;;;;;;;;;13.20;99.90;;;;;;5094768;28;19927;-71
2022/05/10 03:53:41;;;;;;;;;;;13.20;99.90;;;;;;5095942;28;19920;-71
2022/05/10 03:56:06;;;;;;;;;;;13.10;99.90;;;;;;5077579;28;19920;-71
2022/05/10 03:58:31;;;;;;;;;;;13.10;99.90;;;;;;5077269;28;19920;-71
2022/05/10 04:00:57;;;;;;;;;;;13.20;99.90;;;;;;5079641;28;19924;-71
2022/05/10 04:03:22;;;;;;;;;;;13.30;99.90;;;;;;5080365;28;20267;-71
2022/05/10 04:05:48;;;;;;;;;;;13.40;99.90;;;;;;5096723;28;20015;-72
2022/05/10 04:08:14;;;;;;;;;;;13.50;99.90;;;;;;5092704;28;20256;-73
2022/05/10 04:10:40;;;;;;;;;;;13.50;99.90;;;;;;5076238;28;19923;-71
2022/05/10 04:13:05;;;;;;;;;;;13.50;99.90;;;;;;5095247;28;19923;-71
2022/05/10 04:15:31;;;;;;;;;;;13.50;99.90;;;;;;5094400;28;19927;-71
2022/05/10 04:17:59;;;;;;;;;;;13.50;99.90;;;;;;5095266;28;19920;-71
2022/05/10 04:20:24;;;;;;;;;;;13.60;99.90;;;;;;5094567;28;20286;-71
2022/05/10 04:22:50;;;;;;;;;;;13.60;99.90;;;;;;5096425;28;19928;-72
2022/05/10 04:25:23;;;;;;;;;;;13.60;99.90;;;;;;5075644;28;19920;-72
2022/05/10 04:27:50;;;;;;;;;;;13.60;99.90;;;;;;5094466;28;19971;-72
2022/05/10 04:30:16;;;;;;;;;;;13.60;99.90;;;;;;5092987;28;19927;-71
2022/05/10 04:32:42;;;;;;;;;;;13.60;99.90;;;;;;5095663;28;19971;-71
2022/05/10 04:35:08;;;;;;;;;;;13.70;99.90;;;;;;5095379;28;20330;-71
2022/05/10 04:37:33;;;;;;;;;;;13.60;99.90;;;;;;5092927;28;20738;-71
2022/05/10 04:42:44;;;;;;;;;;;13.70;99.90;;;;;;5095670;28;19971;-71
2022/05/10 04:45:10;;;;;;;;;;;14.40;99.90;;;;;;5094837;28;20016;-71
2022/05/10 04:47:35;;;;;;;;;;;13.80;99.90;;;;;;5080907;28;19920;-72
2022/05/10 04:50:01;;;;;;;;;;;13.80;99.90;;;;;;5079541;28;19924;-71
2022/05/10 04:52:29;;;;;;;;;;;13.90;99.90;;;;;;5097320;28;19926;-72
2022/05/10 04:54:55;;;;;;;;;;;14.00;99.90;;;;;;5098894;28;19926;-71
2022/05/10 04:57:21;;;;;;;;;;;14.10;99.90;;;;;;5096717;28;20010;-72
2022/05/10 04:59:47;;;;;;;;;;;14.10;99.90;;;;;;5096903;28;19920;-72
2022/05/10 05:02:13;;;;;;;;;;;14.10;99.90;;;;;;5098022;28;19930;-71
2022/05/10 05:04:39;;;;;;;;;;;14.10;99.90;;;;;;5079760;28;19942;-72
2022/05/10 05:07:04;;;;;;;;;;;14.10;99.90;;;;;;5092006;28;19924;-71
2022/05/10 05:09:32;;;;;;;;;;;14.10;99.90;;;;;;5089959;28;19981;-74
2022/05/10 05:11:58;;;;;;;;;;;14.80;99.90;;;;;;5092493;28;20374;-74
2022/05/10 05:14:24;;;;;;;;;;;14.30;99.90;;;;;;5092286;28;19931;-74
2022/05/10 05:16:50;;;;;;;;;;;14.20;99.90;;;;;;5085821;28;20446;-71
2022/05/10 05:19:15;;;;;;;;;;;14.30;99.90;;;;;;5102741;28;19982;-73
2022/05/10 05:21:42;;;;;;;;;;;14.40;99.90;;;;;;5095796;28;19920;-72
2022/05/10 05:24:10;;;;;;;;;;;14.50;99.90;;;;;;5080027;28;20015;-73
2022/05/10 05:26:35;;;;;;;;;;;14.50;99.90;;;;;;5095621;28;19973;-73
2022/05/10 05:29:01;;;;;;;;;;;14.60;99.90;;;;;;5106360;28;19932;-71
2022/05/10 05:31:27;;;;;;;;;;;14.70;99.90;;;;;;5098129;28;19961;-73
2022/05/10 05:33:54;;;;;;;;;;;14.60;99.90;;;;;;5080365;28;20359;-73
2022/05/10 05:36:19;;;;;;;;;;;14.80;99.90;;;;;;5080314;28;19924;-77
2022/05/10 05:56:46;;;;;;;;;;;15.30;99.90;;;;;;5053600;28;20447;-72
2022/05/10 05:59:11;;;;;;;;;;;15.40;99.90;;;;;;5282339;22;20027;-73
2022/05/10 06:01:37;;;;;;;;;;;15.40;99.90;;;;;;5039473;28;20410;-77
2022/05/10 06:04:02;;;;;;;;;;;15.50;99.90;;;;;;5056665;28;20280;-74
2022/05/10 06:06:28;;;;;;;;;;;15.50;99.90;;;;;;5061635;28;19963;-73
2022/05/10 06:08:53;;;;;;;;;;;15.60;99.90;;;;;;5049131;28;19929;-73
2022/05/10 06:11:19;;;;;;;;;;;15.60;99.90;;;;;;5068616;28;19916;-74
2022/05/10 06:13:44;;;;;;;;;;;15.70;99.90;;;;;;5042977;28;20514;-74
2022/05/10 06:16:10;;;;;;;;;;;15.70;99.90;;;;;;5037919;28;19916;-73
2022/05/10 06:18:36;;;;;;;;;;;15.90;99.90;;;;;;5037907;28;19924;-72
2022/05/10 06:21:01;;;;;;;;;;;16.20;99.90;;;;;;5055714;28;19924;-72
2022/05/10 06:23:27;;;;;;;;;;;16.00;99.90;;;;;;5055333;28;20727;-73
2022/05/10 06:25:52;;;;;;;;;;;16.40;99.90;;;;;;5037892;28;20382;-74
2022/05/10 06:28:20;;;;;;;;;;;16.10;99.90;;;;;;5034555;28;20092;-71
2022/05/10 06:33:16;;;;;;;;;;;16.10;99.90;;;;;;5053101;28;19920;-70
2022/05/10 06:35:44;;;;;;;;;;;16.20;99.90;;;;;;5055789;28;19920;-70
2022/05/10 06:38:28;;;;;;;;;;;16.30;99.90;;;;;;5055340;28;19943;-72
2022/05/10 06:40:59;;;;;;;;;;;16.20;99.90;;;;;;5055714;28;20375;-71
2022/05/10 06:43:25;;;;;;;;;;;16.10;99.90;;;;;;5037808;28;19925;-72
2022/05/10 06:45:50;;;;;;;;;;;16.10;99.90;;;;;;5038009;28;20048;-72
2022/05/10 06:48:16;;;;;;;;;;;16.00;99.90;;;;;;5056112;28;19924;-72
2022/05/10 06:50:42;;;;;;;;;;;16.10;99.90;;;;;;5054690;28;19928;-73
2022/05/10 06:53:09;;;;;;;;;;;16.20;99.90;;;;;;5063140;28;19929;-72
2022/05/10 06:55:35;;;;;;;;;;;15.90;99.90;;;;;;5041840;28;20334;-75
2022/05/10 06:58:01;;;;;;;;;;;16.00;99.90;;;;;;5038610;28;19932;-77
2022/05/10 07:00:27;;;;;;;;;;;16.10;99.90;;;;;;5055550;28;19924;-76
2022/05/10 07:02:52;;;;;;;;;;;16.60;99.90;;;;;;5056280;28;19920;-71
2022/05/10 07:05:18;;;;;;;;;;;16.30;99.90;;;;;;5037502;28;20196;-71
2022/05/10 07:07:44;;;;;;;;;;;16.30;99.90;;;;;;5056676;28;19927;-71
2022/05/10 07:10:11;;;;;;;;;;;16.20;99.90;;;;;;5056128;28;19951;-71
2022/05/10 07:12:37;;;;;;;;;;;16.70;99.90;;;;;;5055356;28;20291;-73
2022/05/10 07:15:04;;;;;;;;;;;16.50;99.90;;;;;;5064770;28;19904;-73
2022/05/10 07:17:29;;;;;;;;;;;16.50;99.90;;;;;;5054730;28;19963;-72
2022/05/10 07:27:35;;;;;;;;;;;16.50;99.90;;;;;;5907302;22;19921;-72
2022/05/10 07:30:00;;;;;;;;;;;16.70;99.90;;;;;;5052247;28;19921;-72
2022/05/10 07:48:02;;;;;;;;;;;17.60;99.90;;;;;;2445517;26;20367;-72
2022/05/10 07:50:34;;;;;;;;;;;17.30;99.90;;;;;;5073591;28;19927;-72
2022/05/10 07:53:06;;;;;;;;;;;17.80;99.90;;;;;;5071163;28;19920;-71
2022/05/10 07:55:34;;;;;;;;;;;17.80;99.90;;;;;;5072519;28;20019;-73
2022/05/10 07:58:00;;;;;;;;;;;17.90;99.90;;;;;;5077451;28;19924;-74
2022/05/10 08:00:25;;;;;;;;;;;18.00;99.90;;;;;;5067275;28;20411;-70
2022/05/10 08:02:51;;;;;;;;;;;18.10;99.90;;;;;;5072673;28;20253;-71
2022/05/10 08:05:18;;;;;;;;;;;18.20;99.90;;;;;;5051705;28;20406;-71
2022/05/10 08:07:44;;;;;;;;;;;19.00;99.90;;;;;;5074167;28;20398;-71
2022/05/10 08:10:10;;;;;;;;;;;18.50;99.90;;;;;;5044312;28;19921;-72
2022/05/10 08:12:36;;;;;;;;;;;19.40;99.90;;;;;;5069621;28;19930;-69
2022/05/10 08:15:02;;;;;;;;;;;18.70;99.90;;;;;;5072311;28;20007;-68
2022/05/10 08:17:27;;;;;;;;;;;18.90;99.90;;;;;;5073012;28;19924;-71
2022/05/10 08:19:56;;;;;;;;;;;18.90;99.90;;;;;;5057153;28;19921;-73
2022/05/10 08:22:21;;;;;;;;;;;18.90;99.90;;;;;;5052747;28;19928;-71
2022/05/10 08:24:47;;;;;;;;;;;18.90;99.90;;;;;;5089036;28;19920;-71
2022/05/10 08:27:12;;;;;;;;;;;19.10;99.90;;;;;;5076291;28;19910;-71
2022/05/10 08:29:37;;;;;;;;;;;19.60;99.90;;;;;;5090636;28;19919;-69
2022/05/10 08:32:03;;;;;;;;;;;19.60;99.90;;;;;;5079860;28;19960;-70
2022/05/10 08:34:29;;;;;;;;;;;19.90;99.90;;;;;;5065860;28;19979;-70
2022/05/10 08:36:55;;;;;;;;;;;20.10;99.90;;;;;;5072981;28;19920;-73
2022/05/10 08:44:38;;;;;;;;;;;20.20;99.90;;;;;;5351353;22;19921;-74
2022/05/10 08:47:06;;;;;;;;;;;20.20;99.90;;;;;;5017078;28;19947;-74
2022/05/10 08:49:36;;;;;;;;;;;20.30;99.90;;;;;;5036472;28;19932;-73
2022/05/10 08:52:03;;;;;;;;;;;20.10;99.90;;;;;;5053328;28;19939;-73
2022/05/10 08:54:30;;;;;;;;;;;19.90;99.90;;;;;;5054977;28;20372;-73
2022/05/10 08:56:57;;;;;;;;;;;19.90;99.90;;;;;;5035458;28;19920;-73
2022/05/10 08:59:40;;;;;;;;;;;19.90;99.90;;;;;;5022957;28;20303;-74
2022/05/10 09:02:09;;;;;;;;;;;19.90;99.90;;;;;;5016603;28;19920;-76
2022/05/10 09:04:34;;;;;;;;;;;19.90;99.90;;;;;;5015714;28;20287;-74
2022/05/10 09:07:12;;;;;;;;;;;20.00;99.90;;;;;;5034799;28;19928;-74
2022/05/10 09:10:06;;;;;;;;;;;20.00;99.90;;;;;;5016145;28;20296;-74
2022/05/10 09:12:42;;;;;;;;;;;20.00;99.90;;;;;;4992375;28;19988;-75
2022/05/10 09:15:09;;;;;;;;;;;20.30;99.90;;;;;;5014417;28;20095;-75
2022/05/10 09:17:36;;;;;;;;;;;20.30;99.90;;;;;;5015421;28;20008;-74
2022/05/10 09:20:03;;;;;;;;;;;21.10;99.90;;;;;;5017263;28;20004;-74
2022/05/10 09:22:32;;;;;;;;;;;20.50;99.90;;;;;;5017323;28;20051;-74
2022/05/10 09:24:58;;;;;;;;;;;20.70;99.90;;;;;;5017623;28;19921;-74
2022/05/10 09:27:31;;;;;;;;;;;20.90;99.90;;;;;;5016523;28;20003;-74
2022/05/10 09:29:57;;;;;;;;;;;20.70;99.90;;;;;;5034993;28;19921;-74
2022/05/10 09:35:24;;;;;;;;;;;21.00;99.90;;;;;;5020113;28;19921;-74
2022/05/10 09:38:01;;;;;;;;;;;21.00;99.90;;;;;;5020220;28;19921;-74
2022/05/10 09:40:36;;;;;;;;;;;20.90;99.90;;;;;;5037813;28;19968;-75
2022/05/10 09:43:22;;;;;;;;;;;20.80;99.90;;;;;;5036814;28;19981;-75
2022/05/10 09:56:23;;;;;;;;;;;20.60;99.90;;;;;;5770576;22;19921;-73
2022/05/10 09:58:58;;;;;;;;;;;20.60;99.90;;;;;;5038047;28;19998;-73
2022/05/10 10:01:39;;;;;;;;;;;20.70;99.90;;;;;;5018092;28;19927;-72
2022/05/10 10:04:21;;;;;;;;;;;20.70;99.70;;;;;;5036448;28;20019;-72
2022/05/10 10:07:06;;;;;;;;;;;20.70;99.90;;;;;;5023400;28;19956;-73
2022/05/10 10:09:33;;;;;;;;;;;20.70;99.90;;;;;;5035347;28;19943;-72
2022/05/10 10:11:59;;;;;;;;;;;20.60;99.90;;;;;;5036414;28;20470;-72
2022/05/10 10:14:54;;;;;;;;;;;20.60;99.90;;;;;;5037175;28;19960;-71
2022/05/10 10:17:22;;;;;;;;;;;20.60;99.90;;;;;;5020176;28;19925;-71
2022/05/10 10:19:57;;;;;;;;;;;20.50;99.90;;;;;;5035528;28;19964;-71
2022/05/10 10:22:27;;;;;;;;;;;20.70;99.90;;;;;;5035618;28;19928;-72
2022/05/10 10:25:16;;;;;;;;;;;20.70;99.90;;;;;;5019972;28;19912;-72
2022/05/10 10:27:45;;;;;;;;;;;20.60;99.90;;;;;;5009433;28;19924;-72
2022/05/10 10:30:20;;;;;;;;;;;20.60;99.90;;;;;;5016953;28;19924;-72
2022/05/10 10:32:48;;;;;;;;;;;20.50;99.90;;;;;;5037974;28;19955;-69
2022/05/10 10:35:13;;;;;;;;;;;20.70;99.90;;;;;;5017922;28;19917;-71
2022/05/10 10:37:51;;;;;;;;;;;20.50;99.90;;;;;;5034291;28;19927;-71
2022/05/10 10:40:36;;;;;;;;;;;21.10;99.90;;;;;;5042700;28;19974;-70
2022/05/10 10:43:16;;;;;;;;;;;20.90;99.90;;;;;;5051733;28;20391;-68
2022/05/10 10:45:46;;;;;;;;;;;20.90;99.90;;;;;;5021502;28;19925;-70
2022/05/10 10:48:19;;;;;;;;;;;21.20;99.90;;;;;;5017645;28;20012;-72
2022/05/10 10:50:44;;;;;;;;;;;21.30;99.80;;;;;;5035570;28;19920;-73
2022/05/10 10:53:11;;;;;;;;;;;21.40;99.00;;;;;;5052847;28;19983;-73
2022/05/10 10:55:53;;;;;;;;;;;21.40;98.60;;;;;;5037491;28;19927;-72
2022/05/10 10:58:29;;;;;;;;;;;21.30;98.10;;;;;;5034257;28;19924;-71
2022/05/10 11:01:01;;;;;;;;;;;21.20;98.10;;;;;;5055266;28;20047;-70
2022/05/10 11:03:31;;;;;;;;;;;21.30;97.90;;;;;;5055262;28;20443;-71
2022/05/10 11:06:18;;;;;;;;;;;21.10;98.10;;;;;;5055393;28;19921;-71
2022/05/10 11:08:47;;;;;;;;;;;21.10;98.10;;;;;;5055465;28;19920;-71
2022/05/10 11:11:12;;;;;;;;;;;21.10;98.10;;;;;;5036268;28;19931;-71
2022/05/10 11:13:58;;;;;;;;;;;21.20;98.20;;;;;;5050316;28;19920;-72
2022/05/10 11:16:35;;;;;;;;;;;21.20;98.60;;;;;;5053953;28;19971;-70
2022/05/10 11:19:09;;;;;;;;;;;21.30;98.10;;;;;;5055839;28;19966;-71
2022/05/10 11:21:53;;;;;;;;;;;21.40;97.80;;;;;;5058091;28;19920;-70
2022/05/10 11:24:25;;;;;;;;;;;21.40;98.30;;;;;;5057036;28;19924;-70
2022/05/10 11:26:50;;;;;;;;;;;21.50;98.20;;;;;;5074702;28;19921;-73
2022/05/10 11:32:57;;;;;;;;;;;21.80;98.00;;;;;;5069279;28;19915;-72
2022/05/10 11:35:41;;;;;;;;;;;21.90;97.60;;;;;;5037079;28;19984;-72
2022/05/10 11:38:14;;;;;;;;;;;21.90;97.10;;;;;;5064995;28;19927;-74
2022/05/10 11:40:51;;;;;;;;;;;21.70;96.90;;;;;;5036699;28;19963;-72
2022/05/10 11:43:38;;;;;;;;;;;21.40;96.40;;;;;;5065036;28;19921;-73
2022/05/10 11:46:19;;;;;;;;;;;21.30;96.20;;;;;;5055901;28;19966;-70
2022/05/10 11:48:59;;;;;;;;;;;21.20;95.70;;;;;;5056318;28;20026;-70
2022/05/10 11:51:43;;;;;;;;;;;21.30;95.60;;;;;;5056486;28;19920;-73
2022/05/10 11:54:31;;;;;;;;;;;21.40;95.30;;;;;;5056813;28;20421;-75
2022/05/10 11:56:58;;;;;;;;;;;21.50;95.00;;;;;;5057028;28;20449;-73
2022/05/10 12:05:05;;;;;;;;;;;21.40;94.30;;;;;;4777867;22;19943;-72
2022/05/10 12:25:53;;;;;;;;;;;19.70;96.20;;;;;;5173913;22;19925;-72
2022/05/10 12:28:37;;;;;;;;;;;19.50;96.90;;;;;;5055061;28;19925;-71
2022/05/10 12:31:21;;;;;;;;;;;19.40;96.60;;;;;;5073049;28;19920;-72
2022/05/10 12:34:06;;;;;;;;;;;19.30;96.80;;;;;;5088193;28;19927;-73
2022/05/10 12:36:38;;;;;;;;;;;19.20;97.10;;;;;;5076303;28;19989;-74
2022/05/10 12:39:24;;;;;;;;;;;19.00;97.20;;;;;;5075987;28;20278;-72
2022/05/10 12:42:14;;;;;;;;;;;19.10;97.30;;;;;;5093867;28;19978;-71
2022/05/10 12:44:57;;;;;;;;;;;19.00;97.10;;;;;;5071019;28;20007;-70
2022/05/10 12:47:41;;;;;;;;;;;19.10;97.40;;;;;;5073319;28;19920;-71
2022/05/10 12:50:19;;;;;;;;;;;19.10;96.40;;;;;;5054838;28;19920;-69
2022/05/10 12:52:49;;;;;;;;;;;19.00;96.80;;;;;;5055658;28;19931;-71
2022/05/10 12:55:23;;;;;;;;;;;18.90;96.80;;;;;;5054856;28;19927;-69
2022/05/10 12:57:57;;;;;;;;;;;19.00;96.80;;;;;;5076631;28;19958;-71
2022/05/10 13:00:24;;;;;;;;;;;19.00;97.20;;;;;;5075834;28;19965;-72
2022/05/10 13:02:59;;;;;;;;;;;19.00;97.70;;;;;;5073051;28;20375;-72
2022/05/10 13:05:30;;;;;;;;;;;19.00;97.60;;;;;;5055370;28;19920;-70
2022/05/10 13:08:14;;;;;;;;;;;18.80;98.30;;;;;;5075792;28;19920;-70
2022/05/10 13:10:40;;;;;;;;;;;18.70;98.40;;;;;;5079458;28;20333;-72
2022/05/10 13:13:17;;;;;;;;;;;18.60;98.40;;;;;;5076441;28;19920;-74
2022/05/10 13:15:44;;;;;;;;;;;18.50;98.70;;;;;;5058550;28;19964;-74
2022/05/10 13:18:17;;;;;;;;;;;18.40;98.90;;;;;;5075377;28;19970;-71
2022/05/10 13:20:45;;;;;;;;;;;18.30;99.40;;;;;;5075782;28;19920;-70
2022/05/10 13:23:10;;;;;;;;;;;18.70;99.50;;;;;;5076241;28;19932;-70
2022/05/10 13:25:38;;;;;;;;;;;18.10;99.90;;;;;;5057449;28;19920;-70
2022/05/10 13:28:07;;;;;;;;;;;18.00;99.90;;;;;;5057863;28;19962;-69
2022/05/10 13:30:37;;;;;;;;;;;18.00;99.90;;;;;;5077841;28;19916;-67
2022/05/10 13:33:02;;;;;;;;;;;17.90;99.90;;;;;;5076448;28;19928;-69
2022/05/10 13:35:31;;;;;;;;;;;17.90;99.90;;;;;;5058467;28;19924;-71
2022/05/10 13:37:57;;;;;;;;;;;18.10;99.90;;;;;;5075540;28;19924;-69
2022/05/10 13:40:42;;;;;;;;;;;18.00;99.90;;;;;;5074916;28;19966;-69
2022/05/10 13:43:22;;;;;;;;;;;18.10;99.90;;;;;;5057929;28;19920;-69
2022/05/10 13:45:50;;;;;;;;;;;17.90;99.90;;;;;;5059927;28;19927;-72
2022/05/10 13:48:18;;;;;;;;;;;18.00;99.90;;;;;;5058866;28;20025;-71
2022/05/10 13:50:50;;;;;;;;;;;18.10;99.90;;;;;;5075637;28;19924;-74
2022/05/10 13:53:23;;;;;;;;;;;18.10;99.90;;;;;;5076691;28;19920;-72
2022/05/10 13:55:56;;;;;;;;;;;18.10;99.90;;;;;;5077428;28;20272;-73
2022/05/10 13:58:47;;;;;;;;;;;18.00;99.90;;;;;;5075289;28;19920;-72
2022/05/10 14:01:29;;;;;;;;;;;17.90;99.90;;;;;;5055949;28;19920;-74
2022/05/10 14:04:01;;;;;;;;;;;17.90;99.90;;;;;;5058915;28;19966;-73
2022/05/10 14:06:29;;;;;;;;;;;17.80;99.90;;;;;;5074974;28;19920;-74
2022/05/10 14:08:55;;;;;;;;;;;17.70;99.90;;;;;;5076954;28;20378;-71
2022/05/10 14:11:21;;;;;;;;;;;17.80;99.90;;;;;;5081667;28;19920;-71
2022/05/10 14:13:49;;;;;;;;;;;17.90;99.90;;;;;;5073937;28;19921;-72
2022/05/10 14:16:27;;;;;;;;;;;17.70;99.90;;;;;;5055561;28;19921;-71
2022/05/10 14:18:52;;;;;;;;;;;17.60;99.90;;;;;;5055182;28;20285;-69
2022/05/10 14:21:23;;;;;;;;;;;17.40;99.90;;;;;;5055911;28;19909;-69
2022/05/10 14:23:49;;;;;;;;;;;17.20;99.90;;;;;;5074477;28;19994;-69
2022/05/10 14:26:24;;;;;;;;;;;17.10;99.90;;;;;;5072368;28;19928;-68
2022/05/10 14:28:54;;;;;;;;;;;17.00;99.90;;;;;;5070790;28;19924;-69
2022/05/10 14:31:34;;;;;;;;;;;16.90;99.90;;;;;;5042429;28;20014;-75
2022/05/10 14:34:02;;;;;;;;;;;17.00;99.90;;;;;;5049544;28;19924;-71
2022/05/10 14:36:42;;;;;;;;;;;16.90;99.90;;;;;;5036437;28;20013;-71
2022/05/10 14:39:19;;;;;;;;;;;16.90;99.90;;;;;;5065178;28;19972;-71
2022/05/10 14:41:45;;;;;;;;;;;16.80;99.90;;;;;;5053998;28;19960;-71
2022/05/10 14:44:25;;;;;;;;;;;16.70;99.90;;;;;;5036921;28;19921;-72
2022/05/10 14:46:55;;;;;;;;;;;16.60;99.90;;;;;;5036996;28;19932;-72
2022/05/10 14:49:33;;;;;;;;;;;16.50;99.90;;;;;;5038577;28;19921;-72
2022/05/10 14:51:59;;;;;;;;;;;16.40;99.90;;;;;;5059457;28;19928;-70
2022/05/10 14:54:32;;;;;;;;;;;16.30;99.90;;;;;;5036922;28;19920;-71
2022/05/10 14:57:00;;;;;;;;;;;16.40;99.90;;;;;;5029473;28;19921;-73
2022/05/10 14:59:50;;;;;;;;;;;16.40;99.90;;;;;;5050146;28;19920;-72
2022/05/10 15:02:22;;;;;;;;;;;16.40;99.90;;;;;;5063096;28;19966;-71
2022/05/10 15:04:49;;;;;;;;;;;16.30;99.90;;;;;;5043413;28;19955;-71
2022/05/10 15:07:14;;;;;;;;;;;16.30;99.90;;;;;;5041175;28;19921;-71
2022/05/10 15:09:40;;;;;;;;;;;16.40;99.90;;;;;;5046218;28;19927;-69
2022/05/10 15:14:53;;;;;;;;;;;16.20;99.90;;;;;;5063004;28;20004;-70
2022/05/10 15:17:18;;;;;;;;;;;16.20;99.90;;;;;;5025140;28;19960;-72
2022/05/10 15:19:44;;;;;;;;;;;16.10;99.90;;;;;;5051314;28;19975;-69
2022/05/10 15:22:10;;;;;;;;;;;16.10;99.90;;;;;;5053385;28;20403;-69
2022/05/10 15:24:36;;;;;;;;;;;16.10;99.90;;;;;;5054024;28;20636;-69
2022/05/10 15:27:06;;;;;;;;;;;16.20;99.90;;;;;;5064834;28;19931;-71
2022/05/10 15:29:33;;;;;;;;;;;16.10;99.90;;;;;;5075795;28;22007;-71
2022/05/10 15:31:59;;;;;;;;;;;16.10;99.90;;;;;;5071553;28;19974;-71
2022/05/10 15:34:43;;;;;;;;;;;16.20;99.90;;;;;;5068960;28;19924;-72
2022/05/10 15:37:09;;;;;;;;;;;16.20;99.90;;;;;;5077492;28;19920;-71
2022/05/10 15:39:35;;;;;;;;;;;16.20;99.90;;;;;;5070833;28;19955;-71
2022/05/10 15:42:01;;;;;;;;;;;16.30;99.90;;;;;;5069228;28;19921;-71
2022/05/10 15:44:26;;;;;;;;;;;16.20;99.90;;;;;;5079847;28;20374;-70
2022/05/10 15:46:52;;;;;;;;;;;16.30;99.90;;;;;;5060749;28;20359;-69
2022/05/10 15:49:17;;;;;;;;;;;16.40;99.90;;;;;;5037613;28;20405;-67
2022/05/10 15:51:44;;;;;;;;;;;16.40;99.90;;;;;;5062055;28;19927;-69
2022/05/10 15:54:13;;;;;;;;;;;16.50;99.90;;;;;;5064588;28;19928;-74
2022/05/10 15:56:40;;;;;;;;;;;16.60;99.90;;;;;;5050387;28;19962;-72
2022/05/10 15:59:06;;;;;;;;;;;16.80;99.90;;;;;;5044419;28;19931;-70
2022/05/10 16:01:32;;;;;;;;;;;16.70;99.90;;;;;;5058556;28;19932;-73
2022/05/10 16:03:57;;;;;;;;;;;16.70;99.90;;;;;;5056912;28;20451;-69
2022/05/10 16:06:23;;;;;;;;;;;16.80;99.90;;;;;;5058633;28;19946;-70
2022/05/10 16:08:51;;;;;;;;;;;16.90;99.90;;;;;;5065232;28;19922;-71
2022/05/10 16:11:17;;;;;;;;;;;17.00;99.90;;;;;;5058500;28;19920;-73
2022/05/10 16:13:42;;;;;;;;;;;17.00;99.90;;;;;;5074938;28;20003;-75